createdAt,value
2022-08-03T00:01:29.228Z,101053.03
2022-08-03T00:03:55.975Z,101045.75
2022-08-03T00:06:22.601Z,101046.16
2022-08-03T00:08:49.358Z,101043.03
2022-08-03T00:11:16.068Z,101043.91
2022-08-03T00:13:42.711Z,101044.53
2022-08-03T00:16:10.742Z,101044.63
2022-08-03T00:18:37.955Z,101038.88
2022-08-03T00:21:05.254Z,101045.97
2022-08-03T00:23:33.479Z,101040.56
2022-08-03T00:26:18.835Z,101039.03
2022-08-03T00:28:45.473Z,101040.38
2022-08-03T00:31:13.313Z,101031.09
2022-08-03T00:33:58.782Z,101037.59
2022-08-03T00:36:27.460Z,101030.59
2022-08-03T00:38:54.525Z,101033.78
2022-08-03T00:41:21.357Z,101037.50
2022-08-03T00:43:48.274Z,101035.94
2022-08-03T00:46:20.595Z,101031.81
2022-08-03T00:48:49.577Z,101034.16
2022-08-03T00:51:16.658Z,101032.97
2022-08-03T00:53:43.514Z,101025.88
2022-08-03T00:56:14.171Z,101024.66
2022-08-03T00:58:41.488Z,101035.81
2022-08-03T01:01:08.281Z,101022.97
2022-08-03T01:03:35.001Z,101030.16
2022-08-03T01:06:18.435Z,101021.69
2022-08-03T01:09:09.610Z,101021.94
2022-08-03T01:11:59.923Z,101024.09
2022-08-03T01:14:33.855Z,101022.16
2022-08-03T01:17:24.239Z,101027.38
2022-08-03T01:20:02.644Z,101027.25
2022-08-03T01:22:38.173Z,101025.25
2022-08-03T01:25:11.060Z,101022.19
2022-08-03T01:28:03.082Z,101025.78
2022-08-03T01:30:36.507Z,101020.25
2022-08-03T01:33:15.554Z,101019.53
2022-08-03T01:35:47.011Z,101018.19
2022-08-03T01:38:24.674Z,101017.69
2022-08-03T01:40:54.899Z,101015.63
2022-08-03T01:43:55.339Z,101016.00
2022-08-03T01:46:17.056Z,101016.38
2022-08-03T01:48:46.352Z,101016.97
2022-08-03T01:51:15.696Z,101011.81
2022-08-03T01:53:45.390Z,101013.38
2022-08-03T01:56:13.400Z,101012.16
2022-08-03T01:58:42.253Z,101005.84
2022-08-03T02:01:10.421Z,101013.75
2022-08-03T02:03:53.516Z,101011.16
2022-08-03T02:06:59.797Z,101019.28
2022-08-03T02:09:17.580Z,101014.31
2022-08-03T02:11:46.814Z,101008.50
2022-08-03T02:14:14.882Z,101002.19
2022-08-03T02:16:44.790Z,101002.31
2022-08-03T02:19:11.963Z,101012.16
2022-08-03T02:21:56.391Z,101004.50
2022-08-03T02:24:25.900Z,101001.16
2022-08-03T02:26:55.949Z,101002.78
2022-08-03T02:29:39.782Z,101002.66
2022-08-03T02:32:12.575Z,100996.63
2022-08-03T02:34:42.164Z,100998.28
2022-08-03T02:37:11.734Z,100999.41
2022-08-03T02:39:41.025Z,100999.66
2022-08-03T02:42:12.233Z,100995.81
2022-08-03T02:44:41.581Z,100992.03
2022-08-03T02:47:11.229Z,100986.06
2022-08-03T02:49:50.388Z,100988.34
2022-08-03T02:52:19.903Z,100990.75
2022-08-03T02:54:49.264Z,100989.31
2022-08-03T02:57:17.293Z,100989.66
2022-08-03T02:59:45.971Z,100995.97
2022-08-03T03:02:15.379Z,100986.13
2022-08-03T03:05:50.702Z,100986.28
2022-08-03T03:07:31.305Z,100996.50
2022-08-03T03:10:05.920Z,100995.41
2022-08-03T03:12:35.899Z,100991.81
2022-08-03T03:15:03.330Z,100994.06
2022-08-03T03:17:31.777Z,100984.44
2022-08-03T03:19:59.541Z,100996.16
2022-08-03T03:22:27.573Z,100986.47
2022-08-03T03:24:54.913Z,100993.16
2022-08-03T03:27:21.994Z,100992.69
2022-08-03T03:29:50.220Z,100994.91
2022-08-03T03:32:17.479Z,100992.69
2022-08-03T03:34:45.317Z,100997.94
2022-08-03T03:37:12.551Z,100990.38
2022-08-03T03:39:41.152Z,100998.44
2022-08-03T03:42:08.041Z,101003.53
2022-08-03T03:44:34.705Z,100993.34
2022-08-03T03:47:01.412Z,100988.72
2022-08-03T03:49:28.187Z,100996.56
2022-08-03T03:51:55.662Z,100988.66
2022-08-03T03:54:22.477Z,100984.09
2022-08-03T03:56:52.455Z,100987.22
2022-08-03T03:59:19.219Z,100995.22
2022-08-03T04:01:45.908Z,100983.28
2022-08-03T04:04:31.282Z,100991.97
2022-08-03T04:07:16.713Z,100987.81
2022-08-03T04:10:14.152Z,100980.25
2022-08-03T04:12:50.583Z,100989.44
2022-08-03T04:15:21.003Z,100990.25
2022-08-03T04:17:50.287Z,100992.72
2022-08-03T04:20:20.150Z,100995.91
2022-08-03T04:22:49.795Z,100988.41
2022-08-03T04:25:19.497Z,101002.47
2022-08-03T04:28:20.942Z,101002.66
2022-08-03T04:30:39.146Z,100998.91
2022-08-03T04:33:09.292Z,101002.00
2022-08-03T04:36:00.892Z,100994.94
2022-08-03T04:38:25.824Z,100998.34
2022-08-03T04:40:53.003Z,100998.06
2022-08-03T04:43:22.264Z,100999.09
2022-08-03T04:45:50.273Z,101002.34
2022-08-03T04:48:17.465Z,100998.50
2022-08-03T04:50:44.747Z,101000.91
2022-08-03T04:53:11.546Z,101005.38
2022-08-03T04:55:38.540Z,101000.56
2022-08-03T04:58:06.354Z,101010.72
2022-08-03T05:00:33.203Z,101010.63
2022-08-03T05:02:59.884Z,101015.38
2022-08-03T05:05:26.861Z,101011.19
2022-08-03T05:08:13.574Z,101012.94
2022-08-03T05:13:16.908Z,101020.47
2022-08-03T05:15:43.602Z,101010.78
2022-08-03T05:18:13.950Z,101009.97
2022-08-03T05:20:41.492Z,101006.06
2022-08-03T05:23:08.294Z,101007.28
2022-08-03T05:25:35.016Z,101014.75
2022-08-03T05:28:01.646Z,101008.94
2022-08-03T05:30:33.552Z,101013.03
2022-08-03T05:33:02.633Z,101004.16
2022-08-03T05:36:01.063Z,101007.84
2022-08-03T05:38:23.950Z,101010.75
2022-08-03T05:41:21.855Z,101005.72
2022-08-03T05:43:44.945Z,101013.97
2022-08-03T05:46:13.142Z,101012.63
2022-08-03T05:48:41.165Z,101011.91
2022-08-03T05:51:11.752Z,101016.44
2022-08-03T05:53:42.343Z,101018.78
2022-08-03T05:56:14.133Z,101019.16
2022-08-03T05:58:48.374Z,101021.84
2022-08-03T06:01:16.305Z,101020.03
2022-08-03T06:03:43.586Z,101015.00
2022-08-03T06:06:11.614Z,101012.78
2022-08-03T06:08:39.375Z,101016.84
2022-08-03T06:11:06.139Z,101012.75
2022-08-03T06:13:33.050Z,101014.78
2022-08-03T06:15:59.795Z,101013.88
2022-08-03T06:18:26.516Z,101008.22
2022-08-03T06:20:54.069Z,101013.28
2022-08-03T06:23:23.333Z,101010.00
2022-08-03T06:26:09.281Z,101006.31
2022-08-03T06:28:52.831Z,101007.22
2022-08-03T06:31:32.342Z,101007.81
2022-08-03T06:34:34.182Z,101016.13
2022-08-03T06:36:50.970Z,101017.63
2022-08-03T06:39:19.746Z,101021.03
2022-08-03T06:41:46.467Z,101013.97
2022-08-03T06:44:13.721Z,101021.38
2022-08-03T06:46:40.667Z,101025.44
2022-08-03T06:49:08.150Z,101016.34
2022-08-03T06:52:06.128Z,101021.16
2022-08-03T06:54:24.561Z,101014.66
2022-08-03T06:56:51.312Z,101021.34
2022-08-03T07:00:08.446Z,101009.38
2022-08-03T07:02:05.471Z,101015.31
2022-08-03T07:04:32.181Z,101012.72
2022-08-03T07:06:58.904Z,101014.09
2022-08-03T07:09:27.051Z,101010.03
2022-08-03T07:11:54.350Z,101009.69
2022-08-03T07:14:21.861Z,101025.09
2022-08-03T07:16:49.528Z,101024.25
2022-08-03T07:19:16.319Z,101022.88
2022-08-03T07:21:43.071Z,101027.28
2022-08-03T07:24:09.814Z,101029.19
2022-08-03T07:26:36.486Z,101026.53
2022-08-03T07:29:03.819Z,101027.38
2022-08-03T07:31:42.122Z,101026.00
2022-08-03T07:34:08.892Z,101036.22
2022-08-03T07:36:35.542Z,101036.91
2022-08-03T07:39:15.813Z,101039.44
2022-08-03T07:41:44.729Z,101032.50
2022-08-03T07:44:11.511Z,101033.44
2022-08-03T07:46:38.206Z,101027.03
2022-08-03T07:49:05.459Z,101034.50
2022-08-03T07:51:32.122Z,101022.50
2022-08-03T07:54:00.802Z,101029.94
2022-08-03T07:56:28.293Z,101035.25
2022-08-03T07:58:55.730Z,101031.59
2022-08-03T08:01:23.527Z,101028.91
2022-08-03T08:03:53.198Z,101028.63
2022-08-03T08:06:21.753Z,101018.31
2022-08-03T08:08:48.628Z,101034.75
2022-08-03T08:11:15.495Z,101027.16
2022-08-03T08:13:42.319Z,101031.91
2022-08-03T08:16:09.041Z,101025.22
2022-08-03T08:18:35.775Z,101020.38
2022-08-03T08:21:03.484Z,101020.88
2022-08-03T08:23:42.854Z,101016.31
2022-08-03T08:26:11.081Z,101014.44
2022-08-03T08:28:38.000Z,101006.63
2022-08-03T08:31:04.634Z,101014.88
2022-08-03T08:36:18.093Z,101015.81
2022-08-03T08:38:45.247Z,101011.94
2022-08-03T08:41:14.169Z,101009.81
2022-08-03T08:43:41.665Z,101012.50
2022-08-03T08:46:12.366Z,101017.72
2022-08-03T08:48:42.453Z,101020.88
2022-08-03T08:51:11.567Z,101008.53
2022-08-03T08:53:41.700Z,101013.41
2022-08-03T08:56:15.347Z,101016.72
2022-08-03T08:58:47.191Z,101018.34
2022-08-03T09:01:13.985Z,101028.38
2022-08-03T09:03:41.319Z,101020.91
2022-08-03T09:06:07.994Z,101017.38
2022-08-03T09:08:34.786Z,101018.59
2022-08-03T09:11:01.708Z,101020.22
2022-08-03T09:13:29.402Z,101014.59
2022-08-03T09:16:14.691Z,101020.88
2022-08-03T09:18:47.253Z,101018.59
2022-08-03T09:21:34.852Z,101020.78
2022-08-03T09:24:05.733Z,101022.09
2022-08-03T09:26:38.260Z,101014.25
2022-08-03T09:29:14.734Z,101019.88
2022-08-03T09:31:45.209Z,101012.13
2022-08-03T09:34:17.001Z,101009.22
2022-08-03T09:36:49.263Z,101011.72
2022-08-03T09:39:41.678Z,101015.03
2022-08-03T09:42:10.791Z,101019.03
2022-08-03T09:44:42.218Z,101015.06
2022-08-03T09:47:13.895Z,101014.00
2022-08-03T09:49:42.202Z,101021.84
2022-08-03T09:52:32.367Z,101017.69
2022-08-03T09:56:30.506Z,101009.13
2022-08-03T09:58:10.003Z,101013.34
2022-08-03T10:00:55.756Z,101002.75
2022-08-03T10:03:23.380Z,101009.66
2022-08-03T10:05:50.158Z,101008.38
2022-08-03T10:08:18.692Z,101002.97
2022-08-03T10:10:47.916Z,101007.78
2022-08-03T10:13:16.794Z,101003.19
2022-08-03T10:16:22.593Z,101001.53
2022-08-03T10:18:31.186Z,101000.25
2022-08-03T10:21:07.852Z,101005.63
2022-08-03T10:23:35.550Z,101006.50
2022-08-03T10:26:04.011Z,101003.16
2022-08-03T10:28:45.238Z,100996.63
2022-08-03T10:31:14.009Z,101001.09
2022-08-03T10:33:51.568Z,100991.09
2022-08-03T10:36:23.688Z,100993.59
2022-08-03T10:38:56.563Z,100993.97
2022-08-03T10:41:33.314Z,100982.16
2022-08-03T10:44:10.358Z,100985.22
2022-08-03T10:46:44.815Z,100982.13
2022-08-03T10:49:19.072Z,100981.47
2022-08-03T10:52:07.565Z,100985.28
2022-08-03T10:55:03.083Z,100992.13
2022-08-03T10:57:43.897Z,100993.16
2022-08-03T11:00:26.442Z,100985.94
2022-08-03T11:03:10.467Z,100984.50
2022-08-03T11:05:38.617Z,100991.47
2022-08-03T11:08:28.632Z,100979.03
2022-08-03T11:11:23.601Z,100976.69
2022-08-03T11:14:20.469Z,100984.81
2022-08-03T11:17:05.961Z,100983.38
2022-08-03T11:19:57.253Z,100983.19
2022-08-03T11:22:25.183Z,100988.38
2022-08-03T11:24:54.177Z,100988.81
2022-08-03T11:27:29.871Z,100991.47
2022-08-03T11:30:11.284Z,100984.44
2022-08-03T11:32:38.353Z,100982.34
2022-08-03T11:35:28.974Z,100984.19
2022-08-03T11:38:03.123Z,100983.34
2022-08-03T11:40:48.326Z,100984.59
2022-08-03T11:43:31.325Z,100994.03
2022-08-03T11:46:29.437Z,100996.47
2022-08-03T11:49:09.774Z,100989.63
2022-08-03T11:51:38.776Z,100990.69
2022-08-03T11:54:06.552Z,100986.13
2022-08-03T11:56:53.483Z,100990.47
2022-08-03T11:59:32.677Z,100981.53
2022-08-03T12:02:14.763Z,100985.28
2022-08-03T12:05:02.957Z,100982.56
2022-08-03T12:08:04.284Z,100970.66
2022-08-03T12:10:17.441Z,100971.50
2022-08-03T12:12:46.662Z,100968.19
2022-08-03T12:15:14.024Z,100962.50
2022-08-03T12:17:41.700Z,100964.38
2022-08-03T12:20:10.505Z,100960.06
2022-08-03T12:22:39.502Z,100959.81
2022-08-03T12:25:07.950Z,100961.25
2022-08-03T12:27:35.437Z,100970.28
2022-08-03T12:30:03.049Z,100960.63
2022-08-03T12:32:30.516Z,100955.28
2022-08-03T12:35:01.006Z,100948.66
2022-08-03T12:37:28.987Z,100951.03
2022-08-03T12:40:02.528Z,100949.81
2022-08-03T12:42:34.856Z,100948.13
2022-08-03T12:45:22.861Z,100955.22
2022-08-03T12:48:01.152Z,100955.41
2022-08-03T12:50:35.987Z,100952.28
2022-08-03T12:53:09.275Z,100952.22
2022-08-03T12:56:04.272Z,100953.81
2022-08-03T12:58:33.989Z,100951.69
2022-08-03T13:01:05.061Z,100954.38
2022-08-03T13:03:49.865Z,100957.06
2022-08-03T13:06:26.531Z,100954.78
2022-08-03T13:09:07.042Z,100956.53
2022-08-03T13:12:01.852Z,100952.91
2022-08-03T13:14:21.058Z,100960.88
2022-08-03T13:16:49.587Z,100957.66
2022-08-03T13:19:16.519Z,100961.94
2022-08-03T13:22:03.250Z,100956.88
2022-08-03T13:24:31.831Z,100952.44
2022-08-03T13:26:59.616Z,100952.13
2022-08-03T13:29:26.276Z,100948.94
2022-08-03T13:31:53.100Z,100955.72
2022-08-03T13:34:23.546Z,100960.16
2022-08-03T13:37:10.300Z,100953.44
2022-08-03T13:39:58.150Z,100947.22
2022-08-03T13:42:25.533Z,100952.78
2022-08-03T13:44:52.196Z,100946.72
2022-08-03T13:47:19.674Z,100941.38
2022-08-03T13:50:00.403Z,100947.03
2022-08-03T13:52:33.734Z,100949.78
2022-08-03T13:55:01.323Z,100940.41
2022-08-03T13:58:02.351Z,100944.72
2022-08-03T14:00:28.168Z,100948.00
2022-08-03T14:03:03.780Z,100929.63
2022-08-03T14:05:32.196Z,100926.44
2022-08-03T14:08:04.557Z,100924.69
2022-08-03T14:10:35.971Z,100929.66
2022-08-03T14:13:03.689Z,100929.78
2022-08-03T14:15:30.626Z,100920.91
2022-08-03T14:17:58.395Z,100921.09
2022-08-03T14:20:36.517Z,100919.91
2022-08-03T14:23:06.958Z,100925.44
2022-08-03T14:25:43.259Z,100912.59
2022-08-03T14:28:23.123Z,100918.84
2022-08-03T14:30:55.812Z,100920.47
2022-08-03T14:33:22.827Z,100921.22
2022-08-03T14:35:49.958Z,100924.38
2022-08-03T14:38:17.429Z,100920.59
2022-08-03T14:40:44.445Z,100924.50
2022-08-03T14:43:11.383Z,100914.97
2022-08-03T14:45:39.360Z,100918.16
2022-08-03T14:50:10.338Z,100921.06
2022-08-03T14:50:55.229Z,100920.66
2022-08-03T14:53:22.139Z,100907.25
2022-08-03T14:55:51.327Z,100913.19
2022-08-03T14:58:23.612Z,100914.78
2022-08-03T15:00:52.008Z,100916.00
2022-08-03T15:03:24.801Z,100908.44
2022-08-03T15:05:57.538Z,100914.41
2022-08-03T15:08:25.767Z,100910.41
2022-08-03T15:10:53.530Z,100904.91
2022-08-03T15:13:21.078Z,100907.34
2022-08-03T15:15:48.517Z,100904.22
2022-08-03T15:18:15.447Z,100909.63
2022-08-03T15:20:45.328Z,100909.19
2022-08-03T15:23:14.154Z,100903.38
2022-08-03T15:26:32.314Z,100899.03
2022-08-03T15:28:27.799Z,100901.97
2022-08-03T15:30:54.810Z,100902.72
2022-08-03T15:33:21.751Z,100900.91
2022-08-03T15:35:48.425Z,100895.94
2022-08-03T15:38:15.698Z,100896.56
2022-08-03T15:40:42.579Z,100904.47
2022-08-03T15:43:09.365Z,100899.44
2022-08-03T15:45:37.047Z,100893.59
2022-08-03T15:48:07.098Z,100889.03
2022-08-03T15:50:34.031Z,100898.63
2022-08-03T15:53:00.702Z,100890.31
2022-08-03T15:55:27.801Z,100893.63
2022-08-03T15:59:04.906Z,100896.53
2022-08-03T16:00:42.439Z,100900.72
2022-08-03T16:03:10.264Z,100897.56
2022-08-03T16:05:37.027Z,100901.03
2022-08-03T16:08:06.228Z,100899.47
2022-08-03T16:10:33.700Z,100891.13
2022-08-03T16:13:00.744Z,100898.63
2022-08-03T16:15:27.806Z,100891.22
2022-08-03T16:17:54.974Z,100898.00
2022-08-03T16:20:30.896Z,100892.38
2022-08-03T16:23:10.333Z,100888.19
2022-08-03T16:25:39.523Z,100893.44
2022-08-03T16:28:13.193Z,100897.72
2022-08-03T16:30:42.361Z,100888.63
2022-08-03T16:33:10.063Z,100895.66
2022-08-03T16:35:37.019Z,100898.47
2022-08-03T16:38:09.985Z,100899.97
2022-08-03T16:40:37.872Z,100900.38
2022-08-03T16:43:18.260Z,100899.09
2022-08-03T16:45:49.099Z,100897.75
2022-08-03T16:48:16.548Z,100896.09
2022-08-03T16:50:44.441Z,100900.28
2022-08-03T16:53:16.634Z,100901.91
2022-08-03T16:55:53.946Z,100904.66
2022-08-03T16:58:34.380Z,100902.72
2022-08-03T17:01:21.719Z,100898.47
2022-08-03T17:04:03.258Z,100902.91
2022-08-03T17:06:36.147Z,100897.50
2022-08-03T17:09:11.830Z,100898.97
2022-08-03T17:15:10.635Z,100910.00
2022-08-03T17:21:42.534Z,100906.69
2022-08-03T17:33:20.231Z,100909.63
2022-08-03T17:37:05.711Z,100903.22
2022-08-03T17:53:07.061Z,100912.06
2022-08-03T17:57:22.662Z,100912.66
2022-08-03T18:00:10.560Z,100910.03
2022-08-03T18:15:08.397Z,100916.94
2022-08-03T18:26:52.870Z,100918.28
2022-08-03T18:30:02.733Z,100922.63
2022-08-03T18:39:32.609Z,100921.84
2022-08-03T18:58:21.083Z,100928.25
2022-08-03T19:05:56.296Z,100947.00
2022-08-03T19:32:26.317Z,100954.34
2022-08-03T19:54:00.472Z,100961.09
2022-08-03T19:58:07.790Z,100963.47
2022-08-03T20:02:17.411Z,100973.75
2022-08-03T20:21:01.829Z,100973.75
2022-08-03T20:48:30.600Z,100993.97
2022-08-03T20:50:57.748Z,100997.03
2022-08-03T20:54:00.231Z,101000.56
2022-08-03T20:56:14.523Z,101002.88
2022-08-03T20:58:42.471Z,100999.72
2022-08-03T21:01:17.382Z,101004.72
2022-08-03T21:03:55.771Z,101001.03
2022-08-03T21:06:27.699Z,100998.03
2022-08-03T21:09:05.404Z,101005.28
2022-08-03T21:11:46.494Z,101003.03
2022-08-03T21:13:06.785Z,100974.75
2022-08-03T21:14:18.939Z,101003.63
2022-08-03T21:16:46.449Z,101012.53
2022-08-03T21:19:16.438Z,101002.97
2022-08-03T21:21:46.756Z,101013.78
2022-08-03T21:24:14.183Z,101013.84
2022-08-03T21:26:42.964Z,101004.69
2022-08-03T21:29:14.173Z,101010.34
2022-08-03T21:31:41.143Z,101010.75
2022-08-03T21:34:07.862Z,101008.47
2022-08-03T21:36:37.257Z,101002.97
2022-08-03T21:39:08.176Z,101006.97
2022-08-03T21:41:35.856Z,101013.97
2022-08-03T21:44:04.546Z,101009.50
2022-08-03T21:46:37.133Z,101009.47
2022-08-03T21:50:07.691Z,101005.13
2022-08-03T21:51:59.472Z,101007.06
2022-08-03T21:54:33.375Z,101008.28
2022-08-03T21:57:04.676Z,101010.56
2022-08-03T21:59:37.053Z,101008.50
2022-08-03T22:02:04.395Z,101013.63
2022-08-03T22:04:55.738Z,101012.28
2022-08-03T22:07:20.577Z,101013.06
2022-08-03T22:09:51.065Z,101013.38
2022-08-03T22:12:30.526Z,101027.22
2022-08-03T22:15:00.573Z,101015.66
2022-08-03T22:17:55.417Z,101016.75
2022-08-03T22:20:17.919Z,101017.03
2022-08-03T22:22:55.048Z,101014.28
2022-08-03T22:25:27.359Z,101012.22
2022-08-03T22:27:54.832Z,101019.56
2022-08-03T22:30:23.130Z,101018.31
2022-08-03T22:32:52.236Z,101016.66
2022-08-03T22:35:21.371Z,101020.16
2022-08-03T23:37:18.493Z,101026.84
2022-08-03T23:39:47.182Z,101028.75
2022-08-03T23:42:21.686Z,101038.66
2022-08-03T23:44:53.229Z,101029.56
2022-08-03T23:47:20.093Z,101028.16
2022-08-03T23:49:47.008Z,101033.47
2022-08-03T23:52:30.126Z,101033.56
2022-08-03T23:55:21.635Z,101037.44
2022-08-03T23:58:00.092Z,101028.88
